sensor_id;sensor_type;location;lat;lon;timestamp;P1;durP1;ratioP1;P2;durP2;ratioP2
8580;SDS011;4328;48.622;9.230;2022-07-30T00:01:47;4.27;;;3.87;;
8580;SDS011;4328;48.622;9.230;2022-07-30T00:04:13;3.90;;;3.60;;
8580;SDS011;4328;48.622;9.230;2022-07-30T00:06:41;4.30;;;4.00;;
8580;SDS011;4328;48.622;9.230;2022-07-30T00:09:08;5.40;;;3.90;;
8580;SDS011;4328;48.622;9.230;2022-07-30T00:11:35;4.57;;;3.83;;
8580;SDS011;4328;48.622;9.230;2022-07-30T00:14:01;4.73;;;3.67;;
8580;SDS011;4328;48.622;9.230;2022-07-30T00:16:28;3.90;;;3.60;;
8580;SDS011;4328;48.622;9.230;2022-07-30T00:18:55;4.00;;;3.70;;
8580;SDS011;4328;48.622;9.230;2022-07-30T00:21:21;4.10;;;3.80;;
8580;SDS011;4328;48.622;9.230;2022-07-30T00:23:49;3.87;;;3.57;;
8580;SDS011;4328;48.622;9.230;2022-07-30T00:26:16;3.60;;;3.40;;
8580;SDS011;4328;48.622;9.230;2022-07-30T00:28:42;4.50;;;3.70;;
8580;SDS011;4328;48.622;9.230;2022-07-30T00:31:09;4.93;;;3.90;;
8580;SDS011;4328;48.622;9.230;2022-07-30T00:33:36;6.10;;;3.50;;
8580;SDS011;4328;48.622;9.230;2022-07-30T00:36:02;4.40;;;3.43;;
8580;SDS011;4328;48.622;9.230;2022-07-30T00:38:29;4.63;;;3.40;;
8580;SDS011;4328;48.622;9.230;2022-07-30T00:40:57;3.73;;;3.53;;
8580;SDS011;4328;48.622;9.230;2022-07-30T00:43:24;4.23;;;3.67;;
8580;SDS011;4328;48.622;9.230;2022-07-30T00:45:51;4.77;;;3.50;;
8580;SDS011;4328;48.622;9.230;2022-07-30T00:48:17;4.53;;;3.73;;
8580;SDS011;4328;48.622;9.230;2022-07-30T00:50:44;4.03;;;3.63;;
8580;SDS011;4328;48.622;9.230;2022-07-30T00:53:10;3.97;;;3.67;;
8580;SDS011;4328;48.622;9.230;2022-07-30T00:55:37;4.33;;;3.60;;
8580;SDS011;4328;48.622;9.230;2022-07-30T00:58:05;4.97;;;3.90;;
8580;SDS011;4328;48.622;9.230;2022-07-30T01:00:32;5.03;;;3.70;;
8580;SDS011;4328;48.622;9.230;2022-07-30T01:02:58;3.77;;;3.47;;
8580;SDS011;4328;48.622;9.230;2022-07-30T01:05:25;6.23;;;3.70;;
8580;SDS011;4328;48.622;9.230;2022-07-30T01:07:51;3.80;;;3.50;;
8580;SDS011;4328;48.622;9.230;2022-07-30T01:10:18;5.10;;;3.63;;
8580;SDS011;4328;48.622;9.230;2022-07-30T01:12:45;4.00;;;3.60;;
8580;SDS011;4328;48.622;9.230;2022-07-30T01:15:13;4.10;;;3.70;;
8580;SDS011;4328;48.622;9.230;2022-07-30T01:17:41;5.20;;;3.60;;
8580;SDS011;4328;48.622;9.230;2022-07-30T01:20:09;3.97;;;3.50;;
8580;SDS011;4328;48.622;9.230;2022-07-30T01:22:49;3.70;;;3.50;;
8580;SDS011;4328;48.622;9.230;2022-07-30T01:25:50;5.07;;;3.43;;
8580;SDS011;4328;48.622;9.230;2022-07-30T01:28:22;3.80;;;3.50;;
8580;SDS011;4328;48.622;9.230;2022-07-30T01:30:52;4.67;;;3.33;;
8580;SDS011;4328;48.622;9.230;2022-07-30T01:33:20;4.80;;;3.70;;
8580;SDS011;4328;48.622;9.230;2022-07-30T01:35:49;4.03;;;3.27;;
8580;SDS011;4328;48.622;9.230;2022-07-30T01:38:18;5.40;;;3.77;;
8580;SDS011;4328;48.622;9.230;2022-07-30T01:40:47;3.60;;;3.30;;
8580;SDS011;4328;48.622;9.230;2022-07-30T01:43:17;4.43;;;3.37;;
8580;SDS011;4328;48.622;9.230;2022-07-30T01:45:45;3.90;;;3.57;;
8580;SDS011;4328;48.622;9.230;2022-07-30T01:48:14;3.97;;;3.43;;
8580;SDS011;4328;48.622;9.230;2022-07-30T01:50:43;5.30;;;3.50;;
8580;SDS011;4328;48.622;9.230;2022-07-30T01:53:12;3.67;;;3.37;;
8580;SDS011;4328;48.622;9.230;2022-07-30T01:55:40;4.60;;;3.50;;
8580;SDS011;4328;48.622;9.230;2022-07-30T01:58:10;3.77;;;3.37;;
8580;SDS011;4328;48.622;9.230;2022-07-30T02:00:39;3.47;;;3.17;;
8580;SDS011;4328;48.622;9.230;2022-07-30T02:03:08;3.97;;;3.50;;
8580;SDS011;4328;48.622;9.230;2022-07-30T02:05:36;4.77;;;3.50;;
8580;SDS011;4328;48.622;9.230;2022-07-30T02:08:06;4.07;;;3.10;;
8580;SDS011;4328;48.622;9.230;2022-07-30T02:10:40;3.70;;;3.37;;
8580;SDS011;4328;48.622;9.230;2022-07-30T02:13:11;3.70;;;3.30;;
8580;SDS011;4328;48.622;9.230;2022-07-30T02:15:42;3.33;;;3.03;;
8580;SDS011;4328;48.622;9.230;2022-07-30T02:18:14;4.03;;;3.40;;
8580;SDS011;4328;48.622;9.230;2022-07-30T02:20:44;3.70;;;3.43;;
8580;SDS011;4328;48.622;9.230;2022-07-30T02:23:16;3.50;;;3.30;;
8580;SDS011;4328;48.622;9.230;2022-07-30T02:25:46;3.13;;;2.93;;
8580;SDS011;4328;48.622;9.230;2022-07-30T02:28:17;5.70;;;3.50;;
8580;SDS011;4328;48.622;9.230;2022-07-30T02:30:47;3.90;;;3.50;;
8580;SDS011;4328;48.622;9.230;2022-07-30T02:33:17;4.03;;;3.47;;
8580;SDS011;4328;48.622;9.230;2022-07-30T02:35:46;3.50;;;3.23;;
8580;SDS011;4328;48.622;9.230;2022-07-30T02:38:15;3.27;;;3.07;;
8580;SDS011;4328;48.622;9.230;2022-07-30T02:40:44;4.63;;;3.20;;
8580;SDS011;4328;48.622;9.230;2022-07-30T02:43:13;3.87;;;3.43;;
8580;SDS011;4328;48.622;9.230;2022-07-30T02:45:41;3.73;;;3.23;;
8580;SDS011;4328;48.622;9.230;2022-07-30T02:48:11;3.37;;;3.17;;
8580;SDS011;4328;48.622;9.230;2022-07-30T02:50:41;3.50;;;3.20;;
8580;SDS011;4328;48.622;9.230;2022-07-30T02:53:08;3.73;;;3.00;;
8580;SDS011;4328;48.622;9.230;2022-07-30T02:55:37;3.60;;;3.40;;
8580;SDS011;4328;48.622;9.230;2022-07-30T02:58:05;4.00;;;3.60;;
8580;SDS011;4328;48.622;9.230;2022-07-30T03:00:32;4.80;;;3.53;;
8580;SDS011;4328;48.622;9.230;2022-07-30T03:03:01;5.30;;;3.77;;
8580;SDS011;4328;48.622;9.230;2022-07-30T03:05:31;3.63;;;3.33;;
8580;SDS011;4328;48.622;9.230;2022-07-30T03:07:59;4.23;;;3.37;;
8580;SDS011;4328;48.622;9.230;2022-07-30T03:10:27;3.93;;;3.53;;
8580;SDS011;4328;48.622;9.230;2022-07-30T03:12:55;5.07;;;4.13;;
8580;SDS011;4328;48.622;9.230;2022-07-30T03:15:24;3.60;;;3.30;;
8580;SDS011;4328;48.622;9.230;2022-07-30T03:17:53;4.27;;;3.67;;
8580;SDS011;4328;48.622;9.230;2022-07-30T03:20:25;5.40;;;3.40;;
8580;SDS011;4328;48.622;9.230;2022-07-30T03:22:53;4.33;;;3.53;;
8580;SDS011;4328;48.622;9.230;2022-07-30T03:25:23;5.13;;;3.50;;
8580;SDS011;4328;48.622;9.230;2022-07-30T03:27:51;5.33;;;3.40;;
8580;SDS011;4328;48.622;9.230;2022-07-30T03:30:20;6.70;;;3.23;;
8580;SDS011;4328;48.622;9.230;2022-07-30T03:32:48;3.40;;;3.17;;
8580;SDS011;4328;48.622;9.230;2022-07-30T03:35:16;3.90;;;3.70;;
8580;SDS011;4328;48.622;9.230;2022-07-30T03:37:47;4.37;;;3.40;;
8580;SDS011;4328;48.622;9.230;2022-07-30T03:40:14;3.80;;;3.50;;
8580;SDS011;4328;48.622;9.230;2022-07-30T03:42:42;4.50;;;3.87;;
8580;SDS011;4328;48.622;9.230;2022-07-30T03:45:10;3.80;;;3.50;;
8580;SDS011;4328;48.622;9.230;2022-07-30T03:47:38;4.00;;;3.57;;
8580;SDS011;4328;48.622;9.230;2022-07-30T03:50:07;4.83;;;3.50;;
8580;SDS011;4328;48.622;9.230;2022-07-30T03:52:35;4.27;;;3.60;;
8580;SDS011;4328;48.622;9.230;2022-07-30T03:55:06;3.90;;;3.57;;
8580;SDS011;4328;48.622;9.230;2022-07-30T03:57:34;4.67;;;4.00;;
8580;SDS011;4328;48.622;9.230;2022-07-30T04:00:01;4.80;;;3.40;;
8580;SDS011;4328;48.622;9.230;2022-07-30T04:02:29;3.50;;;3.30;;
8580;SDS011;4328;48.622;9.230;2022-07-30T04:04:56;4.70;;;3.80;;
8580;SDS011;4328;48.622;9.230;2022-07-30T04:07:22;5.03;;;3.20;;
8580;SDS011;4328;48.622;9.230;2022-07-30T04:09:49;3.67;;;3.37;;
8580;SDS011;4328;48.622;9.230;2022-07-30T04:12:17;4.17;;;3.50;;
8580;SDS011;4328;48.622;9.230;2022-07-30T04:14:44;5.67;;;3.23;;
8580;SDS011;4328;48.622;9.230;2022-07-30T04:17:11;4.03;;;3.70;;
8580;SDS011;4328;48.622;9.230;2022-07-30T04:19:42;3.50;;;3.23;;
8580;SDS011;4328;48.622;9.230;2022-07-30T04:22:13;3.60;;;3.40;;
8580;SDS011;4328;48.622;9.230;2022-07-30T04:24:42;3.77;;;3.43;;
8580;SDS011;4328;48.622;9.230;2022-07-30T04:27:10;3.80;;;3.50;;
8580;SDS011;4328;48.622;9.230;2022-07-30T04:29:38;3.70;;;3.40;;
8580;SDS011;4328;48.622;9.230;2022-07-30T04:32:05;3.77;;;3.30;;
8580;SDS011;4328;48.622;9.230;2022-07-30T04:34:33;4.80;;;3.83;;
8580;SDS011;4328;48.622;9.230;2022-07-30T04:37:00;3.83;;;3.40;;
8580;SDS011;4328;48.622;9.230;2022-07-30T04:39:27;5.20;;;3.60;;
8580;SDS011;4328;48.622;9.230;2022-07-30T04:41:53;3.77;;;3.47;;
8580;SDS011;4328;48.622;9.230;2022-07-30T04:44:20;3.40;;;3.20;;
8580;SDS011;4328;48.622;9.230;2022-07-30T04:46:48;4.57;;;3.50;;
8580;SDS011;4328;48.622;9.230;2022-07-30T04:49:15;7.27;;;3.57;;
8580;SDS011;4328;48.622;9.230;2022-07-30T04:51:44;3.10;;;3.00;;
8580;SDS011;4328;48.622;9.230;2022-07-30T04:54:12;3.90;;;3.60;;
8580;SDS011;4328;48.622;9.230;2022-07-30T04:56:41;3.70;;;3.50;;
8580;SDS011;4328;48.622;9.230;2022-07-30T04:59:08;4.07;;;3.53;;
8580;SDS011;4328;48.622;9.230;2022-07-30T05:01:36;4.83;;;3.57;;
8580;SDS011;4328;48.622;9.230;2022-07-30T05:04:08;3.80;;;3.50;;
8580;SDS011;4328;48.622;9.230;2022-07-30T05:06:37;3.67;;;3.33;;
8580;SDS011;4328;48.622;9.230;2022-07-30T05:09:04;3.87;;;3.57;;
8580;SDS011;4328;48.622;9.230;2022-07-30T05:11:31;6.50;;;3.87;;
8580;SDS011;4328;48.622;9.230;2022-07-30T05:13:58;4.00;;;3.70;;
8580;SDS011;4328;48.622;9.230;2022-07-30T05:16:25;3.40;;;3.20;;
8580;SDS011;4328;48.622;9.230;2022-07-30T05:18:52;4.60;;;3.77;;
8580;SDS011;4328;48.622;9.230;2022-07-30T05:21:20;4.33;;;3.90;;
8580;SDS011;4328;48.622;9.230;2022-07-30T05:23:47;4.10;;;3.60;;
8580;SDS011;4328;48.622;9.230;2022-07-30T05:26:13;3.77;;;3.43;;
8580;SDS011;4328;48.622;9.230;2022-07-30T05:28:44;3.63;;;3.33;;
8580;SDS011;4328;48.622;9.230;2022-07-30T05:31:11;3.77;;;3.50;;
8580;SDS011;4328;48.622;9.230;2022-07-30T05:33:37;3.80;;;3.50;;
8580;SDS011;4328;48.622;9.230;2022-07-30T05:36:04;4.00;;;3.60;;
8580;SDS011;4328;48.622;9.230;2022-07-30T05:38:32;3.63;;;3.33;;
8580;SDS011;4328;48.622;9.230;2022-07-30T05:40:59;3.70;;;3.50;;
8580;SDS011;4328;48.622;9.230;2022-07-30T05:43:26;4.13;;;3.73;;
8580;SDS011;4328;48.622;9.230;2022-07-30T05:45:53;3.63;;;3.33;;
8580;SDS011;4328;48.622;9.230;2022-07-30T05:48:19;4.10;;;3.80;;
8580;SDS011;4328;48.622;9.230;2022-07-30T05:50:46;4.63;;;3.80;;
8580;SDS011;4328;48.622;9.230;2022-07-30T05:53:12;4.10;;;3.80;;
8580;SDS011;4328;48.622;9.230;2022-07-30T05:55:40;6.13;;;3.77;;
8580;SDS011;4328;48.622;9.230;2022-07-30T05:58:07;4.23;;;3.83;;
8580;SDS011;4328;48.622;9.230;2022-07-30T06:00:34;3.83;;;3.50;;
8580;SDS011;4328;48.622;9.230;2022-07-30T06:03:00;4.47;;;3.60;;
8580;SDS011;4328;48.622;9.230;2022-07-30T06:05:27;6.27;;;4.13;;
8580;SDS011;4328;48.622;9.230;2022-07-30T06:07:56;3.97;;;3.67;;
8580;SDS011;4328;48.622;9.230;2022-07-30T06:10:23;3.77;;;3.57;;
8580;SDS011;4328;48.622;9.230;2022-07-30T06:12:51;4.50;;;3.87;;
8580;SDS011;4328;48.622;9.230;2022-07-30T06:15:18;3.93;;;3.60;;
8580;SDS011;4328;48.622;9.230;2022-07-30T06:17:45;4.53;;;3.77;;
8580;SDS011;4328;48.622;9.230;2022-07-30T06:20:13;4.07;;;3.77;;
8580;SDS011;4328;48.622;9.230;2022-07-30T06:22:42;4.40;;;4.10;;
8580;SDS011;4328;48.622;9.230;2022-07-30T06:25:09;3.97;;;3.67;;
8580;SDS011;4328;48.622;9.230;2022-07-30T06:27:36;4.67;;;3.90;;
8580;SDS011;4328;48.622;9.230;2022-07-30T06:30:06;4.00;;;3.60;;
8580;SDS011;4328;48.622;9.230;2022-07-30T06:32:34;4.43;;;4.10;;
8580;SDS011;4328;48.622;9.230;2022-07-30T06:35:01;4.13;;;3.83;;
8580;SDS011;4328;48.622;9.230;2022-07-30T06:37:28;4.27;;;3.83;;
8580;SDS011;4328;48.622;9.230;2022-07-30T06:39:55;4.50;;;4.20;;
8580;SDS011;4328;48.622;9.230;2022-07-30T06:42:21;4.03;;;3.73;;
8580;SDS011;4328;48.622;9.230;2022-07-30T06:44:48;8.37;;;4.50;;
8580;SDS011;4328;48.622;9.230;2022-07-30T06:47:19;4.50;;;4.10;;
8580;SDS011;4328;48.622;9.230;2022-07-30T06:49:50;4.60;;;4.20;;
8580;SDS011;4328;48.622;9.230;2022-07-30T06:52:16;5.17;;;4.53;;
8580;SDS011;4328;48.622;9.230;2022-07-30T06:54:43;5.03;;;4.53;;
8580;SDS011;4328;48.622;9.230;2022-07-30T06:57:10;4.10;;;3.80;;
8580;SDS011;4328;48.622;9.230;2022-07-30T06:59:37;5.30;;;4.03;;
8580;SDS011;4328;48.622;9.230;2022-07-30T07:02:03;6.13;;;4.23;;
8580;SDS011;4328;48.622;9.230;2022-07-30T07:04:32;6.70;;;4.30;;
8580;SDS011;4328;48.622;9.230;2022-07-30T07:06:59;5.73;;;4.70;;
8580;SDS011;4328;48.622;9.230;2022-07-30T07:09:25;5.63;;;4.53;;
8580;SDS011;4328;48.622;9.230;2022-07-30T07:11:52;6.57;;;4.47;;
8580;SDS011;4328;48.622;9.230;2022-07-30T07:14:18;4.90;;;4.50;;
8580;SDS011;4328;48.622;9.230;2022-07-30T07:16:46;4.90;;;4.40;;
8580;SDS011;4328;48.622;9.230;2022-07-30T07:19:13;6.17;;;4.83;;
8580;SDS011;4328;48.622;9.230;2022-07-30T07:21:41;4.43;;;3.80;;
8580;SDS011;4328;48.622;9.230;2022-07-30T07:24:08;5.27;;;4.77;;
8580;SDS011;4328;48.622;9.230;2022-07-30T07:26:34;4.97;;;4.57;;
8580;SDS011;4328;48.622;9.230;2022-07-30T07:29:01;5.40;;;4.80;;
8580;SDS011;4328;48.622;9.230;2022-07-30T07:31:28;7.77;;;5.33;;
8580;SDS011;4328;48.622;9.230;2022-07-30T07:33:54;4.80;;;4.30;;
8580;SDS011;4328;48.622;9.230;2022-07-30T07:36:21;7.37;;;5.47;;
8580;SDS011;4328;48.622;9.230;2022-07-30T07:38:49;4.73;;;4.33;;
8580;SDS011;4328;48.622;9.230;2022-07-30T07:41:16;4.50;;;4.10;;
8580;SDS011;4328;48.622;9.230;2022-07-30T07:43:43;5.83;;;4.60;;
8580;SDS011;4328;48.622;9.230;2022-07-30T07:46:09;4.70;;;4.30;;
8580;SDS011;4328;48.622;9.230;2022-07-30T07:48:40;5.40;;;4.67;;
8580;SDS011;4328;48.622;9.230;2022-07-30T07:51:07;4.70;;;4.20;;
8580;SDS011;4328;48.622;9.230;2022-07-30T07:53:33;6.60;;;4.40;;
8580;SDS011;4328;48.622;9.230;2022-07-30T07:56:01;4.67;;;4.27;;
8580;SDS011;4328;48.622;9.230;2022-07-30T07:58:28;5.00;;;4.50;;
8580;SDS011;4328;48.622;9.230;2022-07-30T08:00:55;4.70;;;4.30;;
8580;SDS011;4328;48.622;9.230;2022-07-30T08:03:21;4.87;;;4.20;;
8580;SDS011;4328;48.622;9.230;2022-07-30T08:05:48;6.80;;;4.47;;
8580;SDS011;4328;48.622;9.230;2022-07-30T08:08:15;4.40;;;3.93;;
8580;SDS011;4328;48.622;9.230;2022-07-30T08:10:41;4.47;;;3.90;;
8580;SDS011;4328;48.622;9.230;2022-07-30T08:13:09;5.87;;;4.20;;
8580;SDS011;4328;48.622;9.230;2022-07-30T08:15:36;4.50;;;3.80;;
8580;SDS011;4328;48.622;9.230;2022-07-30T08:18:03;8.27;;;3.83;;
8580;SDS011;4328;48.622;9.230;2022-07-30T08:20:31;5.00;;;3.70;;
8580;SDS011;4328;48.622;9.230;2022-07-30T08:22:59;3.77;;;3.40;;
8580;SDS011;4328;48.622;9.230;2022-07-30T08:25:26;4.57;;;3.10;;
8580;SDS011;4328;48.622;9.230;2022-07-30T08:27:52;3.40;;;3.10;;
8580;SDS011;4328;48.622;9.230;2022-07-30T08:30:21;4.30;;;2.97;;
8580;SDS011;4328;48.622;9.230;2022-07-30T08:32:47;2.60;;;2.40;;
8580;SDS011;4328;48.622;9.230;2022-07-30T08:35:14;3.73;;;2.37;;
8580;SDS011;4328;48.622;9.230;2022-07-30T08:37:41;2.80;;;2.60;;
8580;SDS011;4328;48.622;9.230;2022-07-30T08:40:08;2.60;;;2.30;;
8580;SDS011;4328;48.622;9.230;2022-07-30T08:42:35;4.20;;;2.53;;
8580;SDS011;4328;48.622;9.230;2022-07-30T08:45:03;4.57;;;2.70;;
8580;SDS011;4328;48.622;9.230;2022-07-30T08:47:33;3.53;;;2.43;;
8580;SDS011;4328;48.622;9.230;2022-07-30T08:50:01;4.57;;;2.60;;
8580;SDS011;4328;48.622;9.230;2022-07-30T08:52:30;2.60;;;2.40;;
8580;SDS011;4328;48.622;9.230;2022-07-30T08:54:58;3.33;;;2.20;;
8580;SDS011;4328;48.622;9.230;2022-07-30T08:57:25;5.93;;;2.50;;
8580;SDS011;4328;48.622;9.230;2022-07-30T08:59:53;2.80;;;2.53;;
8580;SDS011;4328;48.622;9.230;2022-07-30T09:02:21;5.00;;;2.77;;
8580;SDS011;4328;48.622;9.230;2022-07-30T09:04:49;2.63;;;2.30;;
8580;SDS011;4328;48.622;9.230;2022-07-30T09:07:16;4.30;;;2.57;;
8580;SDS011;4328;48.622;9.230;2022-07-30T09:09:42;4.40;;;2.67;;
8580;SDS011;4328;48.622;9.230;2022-07-30T09:15:02;3.30;;;2.20;;
8580;SDS011;4328;48.622;9.230;2022-07-30T09:17:43;3.13;;;2.10;;
8580;SDS011;4328;48.622;9.230;2022-07-30T09:20:16;2.10;;;1.97;;
8580;SDS011;4328;48.622;9.230;2022-07-30T09:22:44;2.33;;;1.90;;
8580;SDS011;4328;48.622;9.230;2022-07-30T09:25:11;2.37;;;2.17;;
8580;SDS011;4328;48.622;9.230;2022-07-30T09:27:45;2.33;;;2.10;;
8580;SDS011;4328;48.622;9.230;2022-07-30T09:30:13;2.33;;;2.23;;
8580;SDS011;4328;48.622;9.230;2022-07-30T09:32:46;2.40;;;1.90;;
8580;SDS011;4328;48.622;9.230;2022-07-30T09:35:13;2.13;;;1.93;;
8580;SDS011;4328;48.622;9.230;2022-07-30T09:37:42;2.70;;;2.00;;
8580;SDS011;4328;48.622;9.230;2022-07-30T09:40:10;4.80;;;2.23;;
8580;SDS011;4328;48.622;9.230;2022-07-30T09:42:38;2.88;;;2.38;;
8580;SDS011;4328;48.622;9.230;2022-07-30T09:45:05;3.40;;;2.10;;
8580;SDS011;4328;48.622;9.230;2022-07-30T09:47:33;4.05;;;2.13;;
8580;SDS011;4328;48.622;9.230;2022-07-30T09:50:01;2.97;;;1.80;;
8580;SDS011;4328;48.622;9.230;2022-07-30T09:52:31;2.38;;;1.83;;
8580;SDS011;4328;48.622;9.230;2022-07-30T09:54:58;3.05;;;2.00;;
8580;SDS011;4328;48.622;9.230;2022-07-30T09:57:25;4.13;;;1.90;;
8580;SDS011;4328;48.622;9.230;2022-07-30T09:59:52;3.03;;;1.80;;
8580;SDS011;4328;48.622;9.230;2022-07-30T10:02:18;3.10;;;1.80;;
8580;SDS011;4328;48.622;9.230;2022-07-30T10:04:45;1.83;;;1.73;;
8580;SDS011;4328;48.622;9.230;2022-07-30T10:07:16;4.32;;;1.88;;
8580;SDS011;4328;48.622;9.230;2022-07-30T10:09:46;2.50;;;1.73;;
8580;SDS011;4328;48.622;9.230;2022-07-30T10:12:13;3.17;;;2.03;;
8580;SDS011;4328;48.622;9.230;2022-07-30T10:14:42;2.10;;;1.55;;
8580;SDS011;4328;48.622;9.230;2022-07-30T10:17:11;1.58;;;1.48;;
8580;SDS011;4328;48.622;9.230;2022-07-30T10:19:38;2.13;;;1.70;;
8580;SDS011;4328;48.622;9.230;2022-07-30T10:22:05;2.33;;;2.08;;
8580;SDS011;4328;48.622;9.230;2022-07-30T10:24:34;3.78;;;1.67;;
8580;SDS011;4328;48.622;9.230;2022-07-30T10:27:03;2.67;;;1.60;;
8580;SDS011;4328;48.622;9.230;2022-07-30T10:29:30;4.00;;;1.80;;
8580;SDS011;4328;48.622;9.230;2022-07-30T10:31:56;2.97;;;1.70;;
8580;SDS011;4328;48.622;9.230;2022-07-30T10:34:25;3.03;;;1.67;;
8580;SDS011;4328;48.622;9.230;2022-07-30T10:36:54;3.60;;;1.67;;
8580;SDS011;4328;48.622;9.230;2022-07-30T10:39:23;2.22;;;1.60;;
8580;SDS011;4328;48.622;9.230;2022-07-30T10:41:56;2.88;;;1.65;;
8580;SDS011;4328;48.622;9.230;2022-07-30T10:47:23;3.35;;;1.50;;
8580;SDS011;4328;48.622;9.230;2022-07-30T10:50:04;2.58;;;1.45;;
8580;SDS011;4328;48.622;9.230;2022-07-30T10:52:46;3.63;;;1.77;;
8580;SDS011;4328;48.622;9.230;2022-07-30T10:55:18;5.00;;;1.50;;
8580;SDS011;4328;48.622;9.230;2022-07-30T10:57:56;2.42;;;1.70;;
8580;SDS011;4328;48.622;9.230;2022-07-30T11:00:29;2.58;;;1.50;;
8580;SDS011;4328;48.622;9.230;2022-07-30T11:03:15;3.65;;;1.90;;
8580;SDS011;4328;48.622;9.230;2022-07-30T11:05:45;2.28;;;1.80;;
8580;SDS011;4328;48.622;9.230;2022-07-30T11:08:32;3.05;;;1.52;;
8580;SDS011;4328;48.622;9.230;2022-07-30T11:11:00;1.70;;;1.60;;
8580;SDS011;4328;48.622;9.230;2022-07-30T11:16:20;5.40;;;1.70;;
8580;SDS011;4328;48.622;9.230;2022-07-30T11:19:01;1.75;;;1.65;;
8580;SDS011;4328;48.622;9.230;2022-07-30T11:21:29;2.38;;;1.50;;
8580;SDS011;4328;48.622;9.230;2022-07-30T11:23:56;2.97;;;1.70;;
8580;SDS011;4328;48.622;9.230;2022-07-30T11:32:02;2.22;;;1.77;;
8580;SDS011;4328;48.622;9.230;2022-07-30T11:34:49;3.53;;;1.50;;
8580;SDS011;4328;48.622;9.230;2022-07-30T11:37:16;2.17;;;1.63;;
8580;SDS011;4328;48.622;9.230;2022-07-30T11:42:34;2.00;;;1.70;;
8580;SDS011;4328;48.622;9.230;2022-07-30T11:47:57;2.60;;;1.70;;
8580;SDS011;4328;48.622;9.230;2022-07-30T11:50:28;2.03;;;1.77;;
8580;SDS011;4328;48.622;9.230;2022-07-30T11:52:58;3.63;;;1.55;;
8580;SDS011;4328;48.622;9.230;2022-07-30T11:55:26;2.15;;;1.90;;
8580;SDS011;4328;48.622;9.230;2022-07-30T11:57:54;3.20;;;1.70;;
8580;SDS011;4328;48.622;9.230;2022-07-30T12:00:22;2.38;;;1.60;;
8580;SDS011;4328;48.622;9.230;2022-07-30T12:02:49;1.60;;;1.50;;
8580;SDS011;4328;48.622;9.230;2022-07-30T12:05:23;2.00;;;1.77;;
8580;SDS011;4328;48.622;9.230;2022-07-30T12:07:52;1.50;;;1.33;;
8580;SDS011;4328;48.622;9.230;2022-07-30T12:10:22;1.65;;;1.48;;
8580;SDS011;4328;48.622;9.230;2022-07-30T12:12:49;2.28;;;1.40;;
8580;SDS011;4328;48.622;9.230;2022-07-30T12:15:28;1.65;;;1.55;;
8580;SDS011;4328;48.622;9.230;2022-07-30T12:17:56;1.35;;;1.30;;
8580;SDS011;4328;48.622;9.230;2022-07-30T12:20:26;1.77;;;1.52;;
8580;SDS011;4328;48.622;9.230;2022-07-30T12:22:54;1.58;;;1.30;;
8580;SDS011;4328;48.622;9.230;2022-07-30T12:25:21;2.42;;;1.70;;
8580;SDS011;4328;48.622;9.230;2022-07-30T12:27:49;1.50;;;1.42;;
8580;SDS011;4328;48.622;9.230;2022-07-30T12:30:16;3.47;;;1.63;;
8580;SDS011;4328;48.622;9.230;2022-07-30T12:32:43;1.83;;;1.58;;
8580;SDS011;4328;48.622;9.230;2022-07-30T12:35:10;1.52;;;1.42;;
8580;SDS011;4328;48.622;9.230;2022-07-30T12:37:39;3.30;;;1.30;;
8580;SDS011;4328;48.622;9.230;2022-07-30T12:40:07;1.70;;;1.60;;
8580;SDS011;4328;48.622;9.230;2022-07-30T12:42:35;2.38;;;1.30;;
8580;SDS011;4328;48.622;9.230;2022-07-30T12:45:03;2.60;;;1.45;;
8580;SDS011;4328;48.622;9.230;2022-07-30T12:47:31;1.63;;;1.50;;
8580;SDS011;4328;48.622;9.230;2022-07-30T12:50:00;2.63;;;1.40;;
8580;SDS011;4328;48.622;9.230;2022-07-30T12:52:28;2.05;;;1.38;;
8580;SDS011;4328;48.622;9.230;2022-07-30T12:55:02;1.50;;;1.40;;
8580;SDS011;4328;48.622;9.230;2022-07-30T12:57:54;1.50;;;1.40;;
8580;SDS011;4328;48.622;9.230;2022-07-30T13:00:23;1.60;;;1.50;;
8580;SDS011;4328;48.622;9.230;2022-07-30T13:02:50;2.85;;;1.50;;
8580;SDS011;4328;48.622;9.230;2022-07-30T13:05:17;1.55;;;1.20;;
8580;SDS011;4328;48.622;9.230;2022-07-30T13:07:56;2.53;;;1.30;;
8580;SDS011;4328;48.622;9.230;2022-07-30T13:10:26;2.65;;;1.48;;
8580;SDS011;4328;48.622;9.230;2022-07-30T13:12:52;3.92;;;1.50;;
8580;SDS011;4328;48.622;9.230;2022-07-30T13:15:20;1.42;;;1.30;;
8580;SDS011;4328;48.622;9.230;2022-07-30T13:17:48;2.08;;;1.45;;
8580;SDS011;4328;48.622;9.230;2022-07-30T13:20:15;1.60;;;1.40;;
8580;SDS011;4328;48.622;9.230;2022-07-30T13:22:42;2.25;;;1.13;;
8580;SDS011;4328;48.622;9.230;2022-07-30T13:25:10;1.42;;;1.42;;
8580;SDS011;4328;48.622;9.230;2022-07-30T13:27:38;1.50;;;1.40;;
8580;SDS011;4328;48.622;9.230;2022-07-30T13:30:05;2.20;;;1.50;;
8580;SDS011;4328;48.622;9.230;2022-07-30T13:32:33;1.20;;;1.20;;
8580;SDS011;4328;48.622;9.230;2022-07-30T13:35:00;1.35;;;1.25;;
8580;SDS011;4328;48.622;9.230;2022-07-30T13:37:27;2.35;;;1.35;;
8580;SDS011;4328;48.622;9.230;2022-07-30T13:39:53;1.40;;;1.30;;
8580;SDS011;4328;48.622;9.230;2022-07-30T13:42:20;2.33;;;1.40;;
8580;SDS011;4328;48.622;9.230;2022-07-30T13:44:48;2.25;;;1.50;;
8580;SDS011;4328;48.622;9.230;2022-07-30T13:47:15;2.85;;;1.35;;
8580;SDS011;4328;48.622;9.230;2022-07-30T13:49:41;1.45;;;1.35;;
8580;SDS011;4328;48.622;9.230;2022-07-30T13:52:10;1.67;;;1.33;;
8580;SDS011;4328;48.622;9.230;2022-07-30T13:54:36;1.48;;;1.23;;
8580;SDS011;4328;48.622;9.230;2022-07-30T13:57:03;2.15;;;1.40;;
8580;SDS011;4328;48.622;9.230;2022-07-30T13:59:30;2.50;;;1.50;;
8580;SDS011;4328;48.622;9.230;2022-07-30T14:01:58;3.08;;;1.52;;
8580;SDS011;4328;48.622;9.230;2022-07-30T14:04:27;1.67;;;1.40;;
8580;SDS011;4328;48.622;9.230;2022-07-30T14:06:54;2.35;;;1.38;;
8580;SDS011;4328;48.622;9.230;2022-07-30T14:09:21;2.33;;;1.40;;
8580;SDS011;4328;48.622;9.230;2022-07-30T14:11:48;2.13;;;1.45;;
8580;SDS011;4328;48.622;9.230;2022-07-30T14:14:14;1.48;;;1.27;;
8580;SDS011;4328;48.622;9.230;2022-07-30T14:16:41;1.80;;;1.60;;
8580;SDS011;4328;48.622;9.230;2022-07-30T14:19:09;1.98;;;1.27;;
8580;SDS011;4328;48.622;9.230;2022-07-30T14:21:36;3.00;;;1.30;;
8580;SDS011;4328;48.622;9.230;2022-07-30T14:24:04;1.73;;;1.30;;
8580;SDS011;4328;48.622;9.230;2022-07-30T14:26:32;1.52;;;1.30;;
8580;SDS011;4328;48.622;9.230;2022-07-30T14:28:58;2.35;;;1.42;;
8580;SDS011;4328;48.622;9.230;2022-07-30T14:31:25;1.40;;;1.30;;
8580;SDS011;4328;48.622;9.230;2022-07-30T14:33:51;1.55;;;1.38;;
8580;SDS011;4328;48.622;9.230;2022-07-30T14:36:19;1.38;;;1.27;;
8580;SDS011;4328;48.622;9.230;2022-07-30T14:38:46;4.05;;;1.38;;
8580;SDS011;4328;48.622;9.230;2022-07-30T14:41:13;5.00;;;1.50;;
8580;SDS011;4328;48.622;9.230;2022-07-30T14:43:39;1.45;;;1.35;;
8580;SDS011;4328;48.622;9.230;2022-07-30T14:46:06;1.40;;;1.30;;
8580;SDS011;4328;48.622;9.230;2022-07-30T14:48:33;4.50;;;1.50;;
8580;SDS011;4328;48.622;9.230;2022-07-30T14:50:59;1.67;;;1.40;;
8580;SDS011;4328;48.622;9.230;2022-07-30T14:53:27;3.90;;;1.70;;
8580;SDS011;4328;48.622;9.230;2022-07-30T14:55:54;1.63;;;1.50;;
8580;SDS011;4328;48.622;9.230;2022-07-30T14:58:21;3.55;;;1.50;;
8580;SDS011;4328;48.622;9.230;2022-07-30T15:00:48;2.10;;;1.73;;
8580;SDS011;4328;48.622;9.230;2022-07-30T15:03:15;3.15;;;1.50;;
8580;SDS011;4328;48.622;9.230;2022-07-30T15:05:42;1.48;;;1.38;;
8580;SDS011;4328;48.622;9.230;2022-07-30T15:08:08;1.80;;;1.33;;
8580;SDS011;4328;48.622;9.230;2022-07-30T15:10:36;3.63;;;1.55;;
8580;SDS011;4328;48.622;9.230;2022-07-30T15:13:04;3.92;;;2.05;;
8580;SDS011;4328;48.622;9.230;2022-07-30T15:15:31;2.75;;;1.90;;
8580;SDS011;4328;48.622;9.230;2022-07-30T15:17:59;1.70;;;1.60;;
8580;SDS011;4328;48.622;9.230;2022-07-30T15:20:25;3.03;;;1.70;;
8580;SDS011;4328;48.622;9.230;2022-07-30T15:22:52;5.40;;;1.88;;
8580;SDS011;4328;48.622;9.230;2022-07-30T15:25:19;3.10;;;1.50;;
8580;SDS011;4328;48.622;9.230;2022-07-30T15:27:47;1.60;;;1.50;;
8580;SDS011;4328;48.622;9.230;2022-07-30T15:30:16;1.85;;;1.52;;
8580;SDS011;4328;48.622;9.230;2022-07-30T15:32:43;2.27;;;1.73;;
8580;SDS011;4328;48.622;9.230;2022-07-30T15:35:09;1.60;;;1.50;;
8580;SDS011;4328;48.622;9.230;2022-07-30T15:37:36;5.13;;;1.60;;
8580;SDS011;4328;48.622;9.230;2022-07-30T15:40:03;1.57;;;1.47;;
8580;SDS011;4328;48.622;9.230;2022-07-30T15:42:30;2.53;;;1.60;;